Time;durP1;ratioP1;P1;durP2;ratioP2;P2;SDS_P1;SDS_P2;PMS_P1;PMS_P2;Temp;Humidity;BMP_temperature;BMP_pressure;BME280_temperature;BME280_humidity;BME280_pressure;Samples;Min_cycle;Max_cycle;Signal;HPM_P1;HPM_P2
2023/06/08 00:00:05;;;;;;;1.75;1.65;;;16.50;99.90;;;;;;5052618;28;20205;-59
2023/06/08 00:02:33;;;;;;;3.63;2.05;;;16.50;99.90;;;;;;5052285;28;20596;-59
2023/06/08 00:05:02;;;;;;;3.10;1.98;;;16.60;99.90;;;;;;5052971;28;20209;-59
2023/06/08 00:07:30;;;;;;;3.75;2.30;;;16.60;99.90;;;;;;5052108;28;20287;-59
2023/06/08 00:09:58;;;;;;;2.30;2.10;;;16.70;99.90;;;;;;5052405;28;20761;-59
2023/06/08 00:12:25;;;;;;;2.97;2.28;;;16.60;99.90;;;;;;5052353;28;20675;-59
2023/06/08 00:14:51;;;;;;;2.28;2.03;;;16.60;99.90;;;;;;5052331;28;20660;-59
2023/06/08 00:17:18;;;;;;;2.85;1.95;;;16.60;99.90;;;;;;5051859;28;20776;-59
2023/06/08 00:19:46;;;;;;;2.05;1.85;;;16.50;99.90;;;;;;5052414;28;20206;-59
2023/06/08 00:22:13;;;;;;;2.83;1.90;;;16.50;99.90;;;;;;5052407;28;20205;-59
2023/06/08 00:24:40;;;;;;;2.58;1.80;;;16.40;99.90;;;;;;5052244;28;20259;-59
2023/06/08 00:27:09;;;;;;;2.95;1.98;;;16.30;99.90;;;;;;5051933;28;20268;-59
2023/06/08 00:29:36;;;;;;;2.17;1.98;;;16.30;99.90;;;;;;5051985;28;20248;-59
2023/06/08 00:32:02;;;;;;;3.63;2.22;;;16.20;99.90;;;;;;5052110;28;20675;-58
2023/06/08 00:34:29;;;;;;;3.25;2.10;;;16.10;99.90;;;;;;5052242;28;20213;-59
2023/06/08 00:36:57;;;;;;;4.32;2.17;;;16.10;99.90;;;;;;5051739;28;20232;-59
2023/06/08 00:39:24;;;;;;;2.20;2.00;;;16.10;99.90;;;;;;5052031;28;20699;-58
2023/06/08 00:41:51;;;;;;;2.08;1.88;;;16.00;99.90;;;;;;5051873;28;20217;-58
2023/06/08 00:44:18;;;;;;;3.08;1.88;;;15.90;99.90;;;;;;5052250;28;20209;-58
2023/06/08 00:46:45;;;;;;;1.80;1.70;;;15.80;99.90;;;;;;5051812;28;20225;-58
2023/06/08 00:49:15;;;;;;;2.20;2.00;;;15.80;99.90;;;;;;5052279;28;20240;-58
2023/06/08 00:51:43;;;;;;;2.50;2.30;;;15.80;99.90;;;;;;5052217;28;20702;-59
2023/06/08 00:54:14;;;;;;;2.30;2.10;;;15.70;99.90;;;;;;5052039;28;20201;-59
2023/06/08 00:56:42;;;;;;;2.37;2.10;;;15.70;99.90;;;;;;5051829;28;20244;-58
2023/06/08 00:59:11;;;;;;;3.93;2.23;;;15.70;99.90;;;;;;5051973;28;20213;-58
2023/06/08 01:01:38;;;;;;;2.45;1.88;;;15.60;99.90;;;;;;5051833;28;20205;-59
2023/06/08 01:04:06;;;;;;;3.90;2.00;;;15.60;99.90;;;;;;5052074;28;20213;-58
2023/06/08 01:06:35;;;;;;;2.28;2.00;;;15.60;99.90;;;;;;5051493;28;20257;-58
2023/06/08 01:09:15;;;;;;;3.10;2.03;;;15.60;99.90;;;;;;5051606;28;20227;-59
2023/06/08 01:12:05;;;;;;;4.15;2.28;;;15.50;99.90;;;;;;5051705;28;20637;-59
2023/06/08 01:14:41;;;;;;;3.75;2.08;;;15.50;99.90;;;;;;5051134;28;20232;-58
2023/06/08 01:17:12;;;;;;;2.70;2.08;;;15.40;99.90;;;;;;5081908;23;20228;-56
2023/06/08 01:20:02;;;;;;;2.60;2.40;;;15.40;99.90;;;;;;5083895;28;20586;-56
2023/06/08 01:22:38;;;;;;;2.40;2.20;;;15.30;99.90;;;;;;5092660;28;20200;-56
2023/06/08 01:25:10;;;;;;;2.60;2.40;;;15.20;99.90;;;;;;5092249;28;20211;-56
2023/06/08 01:27:38;;;;;;;2.23;2.03;;;15.10;99.90;;;;;;5091817;28;20224;-56
2023/06/08 01:30:06;;;;;;;2.77;2.20;;;15.00;99.90;;;;;;5091735;28;21010;-56
2023/06/08 01:32:33;;;;;;;2.33;1.90;;;15.00;99.90;;;;;;5092403;28;20245;-56
2023/06/08 01:35:00;;;;;;;2.97;2.20;;;15.00;99.90;;;;;;5092095;28;20208;-56
2023/06/08 01:37:33;;;;;;;2.78;2.47;;;14.90;99.90;;;;;;5092179;28;20227;-56
2023/06/08 01:40:06;;;;;;;2.57;2.30;;;14.80;99.90;;;;;;5092232;28;20196;-56
2023/06/08 01:42:36;;;;;;;3.40;2.10;;;14.90;99.90;;;;;;5091721;28;20691;-56
2023/06/08 01:45:09;;;;;;;2.80;2.50;;;14.90;99.90;;;;;;5092101;28;20204;-56
2023/06/08 01:47:40;;;;;;;3.17;2.27;;;14.90;99.90;;;;;;5091221;28;20228;-56
2023/06/08 01:50:09;;;;;;;2.63;2.40;;;14.90;99.90;;;;;;5091859;28;20641;-56
2023/06/08 01:52:36;;;;;;;2.70;2.50;;;14.90;99.90;;;;;;5091785;28;20204;-56
2023/06/08 01:55:03;;;;;;;3.17;2.47;;;14.80;99.90;;;;;;5091443;28;20212;-57
2023/06/08 01:57:29;;;;;;;2.43;2.23;;;14.80;99.90;;;;;;5091044;28;20717;-56
2023/06/08 01:59:57;;;;;;;2.83;2.40;;;14.80;99.90;;;;;;5091416;28;20685;-56
2023/06/08 02:02:24;;;;;;;2.50;2.30;;;14.80;99.90;;;;;;5091729;28;20211;-56
2023/06/08 02:04:51;;;;;;;3.97;2.33;;;14.70;99.90;;;;;;5090229;28;20215;-56
2023/06/08 02:07:18;;;;;;;3.90;2.50;;;14.70;99.90;;;;;;5090079;28;20248;-56
2023/06/08 02:09:44;;;;;;;2.80;2.57;;;14.70;99.90;;;;;;5090700;28;20216;-56
2023/06/08 02:12:11;;;;;;;2.73;2.40;;;14.70;99.90;;;;;;5090108;28;20603;-56
2023/06/08 02:14:40;;;;;;;2.53;2.33;;;14.70;99.90;;;;;;5090298;28;20200;-56
2023/06/08 02:17:08;;;;;;;3.93;2.60;;;14.70;99.90;;;;;;5089965;28;20268;-56
2023/06/08 02:19:35;;;;;;;2.33;2.13;;;14.70;99.90;;;;;;5090204;28;20273;-56
2023/06/08 02:22:02;;;;;;;2.33;2.13;;;14.60;99.90;;;;;;5090196;28;20568;-56
2023/06/08 02:24:28;;;;;;;2.83;2.30;;;14.70;99.90;;;;;;5089987;28;20530;-56
2023/06/08 02:26:55;;;;;;;2.53;2.33;;;14.70;99.90;;;;;;5091836;28;20228;-56
2023/06/08 02:29:22;;;;;;;4.33;2.20;;;14.70;99.90;;;;;;5093978;28;20231;-56
2023/06/08 02:31:49;;;;;;;5.20;2.20;;;14.70;99.90;;;;;;5093920;28;20295;-56
2023/06/08 02:34:17;;;;;;;3.80;2.73;;;14.70;99.90;;;;;;5093529;28;20216;-56
2023/06/08 02:36:47;;;;;;;4.60;2.40;;;14.80;99.90;;;;;;5092881;28;20232;-55
2023/06/08 02:39:14;;;;;;;5.20;2.47;;;14.80;99.90;;;;;;5094127;28;20204;-56
2023/06/08 02:41:41;;;;;;;3.10;2.80;;;14.70;99.90;;;;;;5095027;28;20688;-55
2023/06/08 02:44:07;;;;;;;3.13;2.40;;;14.70;99.90;;;;;;5094543;28;20208;-56
2023/06/08 02:46:34;;;;;;;4.27;2.77;;;14.50;99.90;;;;;;5094025;28;20228;-55
2023/06/08 02:49:01;;;;;;;4.30;2.70;;;14.50;99.90;;;;;;5093554;28;20208;-55
2023/06/08 02:51:29;;;;;;;3.93;2.80;;;14.50;99.90;;;;;;5093574;28;20296;-55
2023/06/08 02:53:55;;;;;;;2.67;2.47;;;14.50;99.90;;;;;;5093656;28;20212;-56
2023/06/08 02:56:24;;;;;;;3.40;2.83;;;14.50;99.90;;;;;;5093769;28;20220;-55
2023/06/08 02:58:51;;;;;;;3.47;3.00;;;14.50;99.90;;;;;;5093765;28;20250;-56
2023/06/08 03:01:18;;;;;;;2.73;2.53;;;14.50;99.90;;;;;;5094221;28;20205;-56
2023/06/08 03:03:49;;;;;;;2.83;2.47;;;14.50;99.90;;;;;;5094531;28;20689;-56
2023/06/08 03:06:17;;;;;;;4.40;3.17;;;14.40;99.90;;;;;;5094436;28;20232;-56
2023/06/08 03:08:47;;;;;;;3.87;3.10;;;14.40;99.90;;;;;;5094713;28;20208;-55
2023/06/08 03:11:14;;;;;;;3.77;2.83;;;14.40;99.90;;;;;;5094103;28;20223;-55
2023/06/08 03:13:41;;;;;;;2.97;2.60;;;14.30;99.90;;;;;;5093717;28;20204;-55
2023/06/08 03:16:08;;;;;;;3.10;2.80;;;14.10;99.90;;;;;;5093068;28;20665;-56
2023/06/08 03:18:35;;;;;;;3.63;2.83;;;14.10;99.90;;;;;;5093330;28;20238;-56
2023/06/08 03:21:03;;;;;;;2.80;2.57;;;14.10;99.90;;;;;;5094323;28;20204;-55
2023/06/08 03:23:30;;;;;;;5.33;2.70;;;14.10;99.90;;;;;;5094490;28;20208;-55
2023/06/08 03:25:58;;;;;;;3.87;2.50;;;14.20;99.90;;;;;;5093938;28;20218;-55
2023/06/08 03:28:25;;;;;;;3.10;2.80;;;14.10;99.90;;;;;;5094108;28;20653;-55
2023/06/08 03:30:52;;;;;;;3.03;2.73;;;14.10;99.90;;;;;;5093724;28;20220;-55
2023/06/08 03:33:19;;;;;;;3.43;3.13;;;14.10;99.90;;;;;;5094671;28;20215;-55
2023/06/08 03:35:46;;;;;;;4.10;2.90;;;14.10;99.90;;;;;;5093846;28;20207;-55
2023/06/08 03:38:13;;;;;;;4.50;3.40;;;14.20;99.90;;;;;;5093367;28;20232;-56
2023/06/08 03:40:39;;;;;;;3.40;2.77;;;14.20;99.90;;;;;;5093721;28;20207;-56
2023/06/08 03:43:07;;;;;;;4.03;3.10;;;14.30;99.90;;;;;;5093659;28;20208;-55
2023/06/08 03:45:34;;;;;;;3.40;3.10;;;14.30;99.90;;;;;;5093769;28;20569;-55
2023/06/08 03:48:01;;;;;;;3.40;2.93;;;14.40;99.90;;;;;;5093729;28;20277;-56
2023/06/08 03:50:27;;;;;;;3.13;2.70;;;14.50;99.90;;;;;;5094019;28;20215;-55
2023/06/08 03:52:54;;;;;;;3.40;3.10;;;14.60;99.90;;;;;;5093855;28;20582;-55
2023/06/08 03:55:21;;;;;;;4.43;2.80;;;14.70;99.90;;;;;;5093553;28;20208;-56
2023/06/08 03:57:48;;;;;;;3.57;2.40;;;14.70;99.90;;;;;;5092878;28;20220;-56
2023/06/08 04:00:17;;;;;;;3.50;2.73;;;14.80;99.90;;;;;;5093725;28;20204;-56
2023/06/08 04:02:43;;;;;;;5.50;2.90;;;14.80;99.90;;;;;;5093731;28;20208;-56
2023/06/08 04:05:10;;;;;;;2.93;2.73;;;15.00;99.90;;;;;;5093586;28;20200;-55
2023/06/08 04:07:37;;;;;;;3.53;2.60;;;15.10;99.90;;;;;;5093234;28;20285;-56
2023/06/08 04:10:04;;;;;;;4.30;2.80;;;15.20;99.90;;;;;;5093346;28;20207;-56
2023/06/08 04:12:31;;;;;;;6.40;3.13;;;15.30;99.90;;;;;;5093339;28;20601;-55
2023/06/08 04:14:58;;;;;;;4.20;2.73;;;15.40;99.90;;;;;;5093369;28;20235;-56
2023/06/08 04:17:27;;;;;;;3.33;3.03;;;15.50;99.90;;;;;;5093080;28;20755;-56
2023/06/08 04:19:54;;;;;;;3.27;2.70;;;15.60;99.90;;;;;;5093176;28;20230;-56
2023/06/08 04:22:21;;;;;;;5.03;3.23;;;15.70;99.90;;;;;;5093069;28;20683;-56
2023/06/08 04:24:47;;;;;;;3.20;2.90;;;15.80;99.90;;;;;;5093397;28;20502;-56
2023/06/08 04:27:16;;;;;;;3.35;3.05;;;15.90;99.90;;;;;;5092516;28;20228;-56
2023/06/08 04:29:42;;;;;;;4.93;3.00;;;16.00;99.90;;;;;;5093010;28;20205;-56
2023/06/08 04:32:10;;;;;;;8.68;2.97;;;16.00;99.90;;;;;;5092845;28;20216;-56
2023/06/08 04:34:38;;;;;;;3.42;3.13;;;16.10;99.90;;;;;;5092947;28;20721;-56
2023/06/08 04:37:05;;;;;;;4.00;2.80;;;16.10;99.90;;;;;;5093071;28;20270;-56
2023/06/08 04:39:32;;;;;;;4.07;3.10;;;16.10;99.90;;;;;;5093200;28;20204;-56
2023/06/08 04:41:59;;;;;;;3.23;2.93;;;16.20;99.90;;;;;;5092941;28;20210;-56
2023/06/08 04:44:31;;;;;;;3.85;3.03;;;16.20;99.90;;;;;;5092813;28;20211;-56
2023/06/08 04:46:59;;;;;;;4.07;2.88;;;16.30;99.90;;;;;;5092405;28;20256;-57
2023/06/08 04:49:31;;;;;;;4.35;2.95;;;16.50;99.90;;;;;;5092094;28;20239;-56
2023/06/08 04:51:59;;;;;;;3.47;3.03;;;17.10;99.90;;;;;;5092851;28;20224;-56
2023/06/08 04:54:27;;;;;;;3.65;3.00;;;18.10;99.90;;;;;;5093117;28;20200;-56
2023/06/08 04:56:58;;;;;;;3.38;3.08;;;19.60;99.90;;;;;;5092794;28;20235;-56
2023/06/08 04:59:26;;;;;;;3.05;2.63;;;21.30;99.90;;;;;;5092833;28;20239;-56
2023/06/08 05:01:53;;;;;;;3.50;2.50;;;22.80;99.90;;;;;;5092682;28;20761;-57
2023/06/08 05:04:20;;;;;;;4.10;2.88;;;23.40;99.90;;;;;;5092910;28;20617;-57
2023/06/08 05:06:47;;;;;;;2.42;2.20;;;23.90;99.90;;;;;;5092498;28;20650;-57
2023/06/08 05:09:15;;;;;;;3.60;2.53;;;24.10;99.90;;;;;;5093095;28;20204;-57
2023/06/08 05:11:42;;;;;;;3.00;2.70;;;23.90;99.90;;;;;;5092828;28;20220;-56
2023/06/08 05:14:10;;;;;;;3.35;2.83;;;23.40;99.90;;;;;;5093204;28;20208;-57
2023/06/08 05:16:38;;;;;;;4.82;4.30;;;23.00;99.90;;;;;;5093048;28;20739;-57
2023/06/08 05:19:04;;;;;;;5.20;4.68;;;22.60;99.90;;;;;;5093778;28;20252;-57
2023/06/08 05:21:32;;;;;;;5.22;3.72;;;22.20;99.90;;;;;;5093325;28;20239;-56
2023/06/08 05:23:58;;;;;;;6.97;3.75;;;22.00;99.90;;;;;;5093783;28;20291;-56
2023/06/08 05:26:26;;;;;;;7.05;4.07;;;22.00;99.90;;;;;;5093852;28;20231;-56
2023/06/08 05:28:55;;;;;;;6.63;3.15;;;21.90;99.90;;;;;;5093140;28;20685;-56
2023/06/08 05:31:21;;;;;;;3.42;3.03;;;21.80;99.90;;;;;;5092069;28;20330;-56
2023/06/08 05:33:48;;;;;;;3.03;2.60;;;21.90;99.90;;;;;;5092120;28;20632;-56
2023/06/08 05:36:15;;;;;;;5.10;2.75;;;21.90;99.90;;;;;;5092122;28;20231;-56
2023/06/08 05:38:42;;;;;;;4.65;3.53;;;21.80;99.90;;;;;;5092202;28;20700;-56
2023/06/08 05:41:08;;;;;;;6.20;3.70;;;21.90;99.90;;;;;;5093288;28;20211;-57
2023/06/08 05:43:37;;;;;;;3.45;2.60;;;22.90;99.90;;;;;;5094428;28;20211;-56
2023/06/08 05:46:03;;;;;;;3.13;2.55;;;24.60;99.70;;;;;;5095133;28;20200;-56
2023/06/08 05:48:30;;;;;;;3.60;3.28;;;26.20;96.20;;;;;;5095584;28;20204;-56
2023/06/08 05:50:57;;;;;;;3.78;3.10;;;27.60;93.50;;;;;;5094798;28;20220;-56
2023/06/08 05:53:24;;;;;;;8.15;6.20;;;28.80;90.70;;;;;;5093655;28;20204;-56
2023/06/08 05:55:50;;;;;;;6.13;3.67;;;30.10;85.40;;;;;;5093409;28;20212;-56
2023/06/08 05:58:18;;;;;;;4.55;2.85;;;30.70;78.90;;;;;;5094095;28;20228;-57
2023/06/08 06:00:46;;;;;;;3.47;3.10;;;30.00;78.40;;;;;;5095227;28;20204;-56
2023/06/08 06:03:13;;;;;;;3.53;3.15;;;29.20;79.70;;;;;;5097468;28;20196;-57
2023/06/08 06:05:40;;;;;;;4.60;3.67;;;29.60;79.10;;;;;;5097667;28;20211;-56
2023/06/08 06:08:06;;;;;;;5.30;4.47;;;29.70;79.40;;;;;;5097883;28;20232;-57
2023/06/08 06:10:33;;;;;;;3.97;3.55;;;30.90;76.50;;;;;;5096622;28;20208;-57
2023/06/08 06:13:00;;;;;;;3.63;3.00;;;32.20;72.90;;;;;;5097207;28;20605;-57
2023/06/08 06:15:27;;;;;;;3.65;2.90;;;33.20;67.70;;;;;;5096095;28;20204;-58
2023/06/08 06:17:55;;;;;;;4.10;3.63;;;33.30;65.70;;;;;;5095969;28;20232;-58
2023/06/08 06:20:23;;;;;;;4.68;2.80;;;33.70;63.30;;;;;;5095859;28;20301;-56
2023/06/08 06:22:49;;;;;;;2.90;2.60;;;33.60;61.50;;;;;;5095651;28;20196;-56
2023/06/08 06:25:16;;;;;;;3.25;2.63;;;33.30;62.20;;;;;;5095453;28;20204;-57
2023/06/08 06:27:43;;;;;;;2.88;2.67;;;33.50;61.80;;;;;;5095212;28;20220;-56
2023/06/08 06:30:11;;;;;;;3.10;2.80;;;34.20;59.60;;;;;;5095583;28;20665;-57
2023/06/08 06:32:38;;;;;;;3.53;2.80;;;35.20;58.10;;;;;;5095657;28;20228;-57
2023/06/08 06:35:06;;;;;;;3.17;2.70;;;36.10;56.40;;;;;;5095490;28;20689;-57
2023/06/08 06:37:34;;;;;;;3.78;2.50;;;36.60;54.80;;;;;;5095435;28;20228;-58
2023/06/08 06:40:03;;;;;;;3.25;2.72;;;37.00;53.30;;;;;;5095283;28;20253;-57
2023/06/08 06:42:30;;;;;;;3.53;3.00;;;37.50;52.10;;;;;;5095729;28;20291;-61
2023/06/08 06:44:58;;;;;;;4.18;2.67;;;37.90;51.90;;;;;;5095230;28;20207;-58
2023/06/08 06:47:25;;;;;;;3.33;2.90;;;38.20;51.10;;;;;;5095051;28;20228;-58
2023/06/08 06:49:52;;;;;;;3.42;2.60;;;38.80;50.00;;;;;;5095270;28;20211;-58
2023/06/08 06:52:20;;;;;;;4.88;2.85;;;39.30;49.10;;;;;;5095051;28;20247;-58
2023/06/08 06:54:46;;;;;;;3.30;2.70;;;39.80;48.00;;;;;;5095250;28;20208;-58
2023/06/08 06:57:13;;;;;;;3.10;2.80;;;39.90;47.40;;;;;;5095049;28;20227;-58
2023/06/08 06:59:40;;;;;;;3.90;2.80;;;39.90;47.30;;;;;;5094970;28;20208;-58
2023/06/08 07:02:07;;;;;;;3.88;2.97;;;39.90;47.10;;;;;;5095100;28;20196;-57
2023/06/08 07:04:34;;;;;;;3.55;2.85;;;39.80;46.90;;;;;;5094917;28;20254;-58
2023/06/08 07:07:01;;;;;;;4.22;3.13;;;40.00;46.50;;;;;;5094474;28;20228;-58
2023/06/08 07:09:29;;;;;;;5.78;3.13;;;40.20;45.70;;;;;;5094777;28;20216;-59
2023/06/08 07:11:56;;;;;;;2.90;2.70;;;40.20;45.60;;;;;;5093917;28;20239;-59
2023/06/08 07:14:23;;;;;;;4.10;2.60;;;40.10;45.40;;;;;;5094715;28;20212;-58
2023/06/08 07:16:50;;;;;;;6.03;2.75;;;39.90;45.40;;;;;;5094531;28;20228;-60
2023/06/08 07:19:16;;;;;;;3.70;2.60;;;39.90;45.40;;;;;;5094464;28;20207;-58
2023/06/08 07:21:43;;;;;;;3.90;2.45;;;40.20;44.60;;;;;;5094099;28;20257;-59
2023/06/08 07:24:10;;;;;;;3.00;2.70;;;40.80;44.00;;;;;;5094319;28;20208;-59
2023/06/08 07:26:38;;;;;;;2.65;2.45;;;41.00;43.90;;;;;;5094211;28;20223;-59
2023/06/08 07:29:04;;;;;;;3.50;2.65;;;41.20;43.40;;;;;;5094678;28;20207;-61
2023/06/08 07:31:31;;;;;;;2.63;2.42;;;41.40;42.70;;;;;;5095244;28;20722;-58
2023/06/08 07:33:58;;;;;;;5.40;2.45;;;41.40;42.40;;;;;;5094337;28;20235;-59
2023/06/08 07:36:28;;;;;;;4.22;2.58;;;41.70;41.70;;;;;;5093930;28;20228;-60
2023/06/08 07:38:56;;;;;;;2.60;2.40;;;42.30;40.90;;;;;;5093974;28;20207;-60
2023/06/08 07:41:24;;;;;;;2.47;2.28;;;42.60;40.70;;;;;;5094071;28;20199;-59
2023/06/08 07:43:52;;;;;;;4.15;2.20;;;42.90;40.10;;;;;;5094209;28;20207;-59
2023/06/08 07:46:19;;;;;;;4.15;2.60;;;42.90;39.80;;;;;;5093397;28;20227;-59
2023/06/08 07:48:46;;;;;;;3.30;2.50;;;43.20;39.40;;;;;;5093933;28;20290;-59
2023/06/08 07:51:13;;;;;;;3.55;2.63;;;43.80;38.60;;;;;;5093458;28;20257;-58
2023/06/08 07:53:40;;;;;;;2.92;2.63;;;44.40;38.70;;;;;;5093685;28;20235;-58
2023/06/08 07:56:07;;;;;;;2.70;2.50;;;45.10;37.30;;;;;;5093828;28;20208;-59
2023/06/08 07:58:34;;;;;;;2.70;2.50;;;45.00;37.30;;;;;;5093660;28;20203;-58
2023/06/08 08:01:03;;;;;;;4.95;2.85;;;43.30;38.50;;;;;;5093410;28;20200;-58
2023/06/08 08:03:30;;;;;;;4.85;2.60;;;41.20;40.60;;;;;;5093476;28;20206;-58
2023/06/08 08:05:57;;;;;;;3.75;2.75;;;40.50;41.70;;;;;;5093311;28;20212;-58
2023/06/08 08:08:24;;;;;;;2.92;2.47;;;41.40;40.70;;;;;;5093470;28;20673;-58
2023/06/08 08:10:51;;;;;;;4.50;2.47;;;41.90;39.60;;;;;;5093667;28;20203;-58
2023/06/08 08:13:17;;;;;;;2.80;2.60;;;41.20;40.30;;;;;;5093279;28;20230;-58
2023/06/08 08:15:45;;;;;;;2.80;2.60;;;40.90;40.40;;;;;;5093359;28;20208;-57
2023/06/08 08:18:13;;;;;;;3.55;2.60;;;40.70;40.80;;;;;;5093543;28;20333;-58
2023/06/08 08:20:40;;;;;;;5.70;2.42;;;40.50;41.30;;;;;;5093718;28;20235;-58
2023/06/08 08:23:07;;;;;;;2.97;2.40;;;41.20;40.90;;;;;;5094116;28;20203;-58
2023/06/08 08:25:34;;;;;;;3.17;2.50;;;42.20;39.70;;;;;;5093534;28;20207;-58
2023/06/08 08:28:01;;;;;;;2.88;2.67;;;42.90;39.40;;;;;;5093727;28;20373;-58
2023/06/08 08:30:28;;;;;;;3.53;2.60;;;42.90;39.60;;;;;;5093648;28;20207;-59
2023/06/08 08:32:55;;;;;;;2.78;2.58;;;42.80;39.90;;;;;;5093020;28;20227;-59
2023/06/08 08:35:28;;;;;;;4.40;2.90;;;42.20;40.10;;;;;;5092798;28;20696;-59
2023/06/08 08:37:55;;;;;;;3.75;2.67;;;42.10;40.20;;;;;;5093172;28;20720;-59
2023/06/08 08:40:22;;;;;;;2.92;2.60;;;41.10;41.70;;;;;;5093297;28;20600;-59
2023/06/08 08:42:57;;;;;;;2.97;2.70;;;40.60;42.10;;;;;;5093053;28;20208;-59
2023/06/08 08:45:29;;;;;;;4.15;3.00;;;39.90;43.30;;;;;;5092898;28;20215;-58
2023/06/08 08:47:57;;;;;;;4.45;2.92;;;39.40;43.00;;;;;;5092842;28;20319;-58
2023/06/08 08:50:26;;;;;;;4.47;3.58;;;38.50;44.50;;;;;;5093356;28;20636;-58
2023/06/08 08:52:56;;;;;;;6.63;3.38;;;37.10;46.40;;;;;;5093391;28;20315;-58
2023/06/08 08:55:27;;;;;;;5.15;3.20;;;35.50;48.00;;;;;;5092559;28;20689;-58
2023/06/08 08:57:55;;;;;;;5.28;3.00;;;33.70;50.60;;;;;;5092229;28;20713;-58
2023/06/08 09:00:22;;;;;;;5.15;2.63;;;32.20;52.10;;;;;;5092886;28;20243;-58
2023/06/08 09:02:50;;;;;;;3.42;3.13;;;31.70;52.70;;;;;;5092498;28;20209;-58
2023/06/08 09:05:17;;;;;;;4.70;3.28;;;31.20;53.30;;;;;;5092241;28;20229;-58
2023/06/08 09:07:45;;;;;;;3.50;3.20;;;30.80;54.90;;;;;;5092019;28;20235;-58
2023/06/08 09:10:18;;;;;;;5.57;3.38;;;30.30;57.10;;;;;;5092362;28;20259;-58
2023/06/08 09:12:46;;;;;;;5.93;3.17;;;29.90;58.30;;;;;;5092492;28;20607;-58
2023/06/08 09:15:14;;;;;;;5.07;3.30;;;29.60;59.00;;;;;;5092209;28;20300;-59
2023/06/08 09:17:41;;;;;;;3.60;3.30;;;29.10;59.80;;;;;;5091910;28;20255;-58
2023/06/08 09:20:10;;;;;;;4.70;3.30;;;29.00;59.10;;;;;;5092111;28;20250;-60
2023/06/08 09:22:37;;;;;;;3.20;3.00;;;28.80;59.10;;;;;;5092017;28;20682;-57
2023/06/08 09:25:06;;;;;;;3.75;3.45;;;28.40;59.30;;;;;;5092106;28;20729;-57
2023/06/08 09:27:33;;;;;;;5.85;3.58;;;28.10;60.40;;;;;;5092016;28;20224;-58
2023/06/08 09:30:01;;;;;;;4.80;4.07;;;27.80;63.30;;;;;;5092435;28;20208;-57
2023/06/08 09:32:32;;;;;;;3.95;3.50;;;27.60;63.70;;;;;;5092020;28;20256;-57
2023/06/08 09:35:02;;;;;;;3.90;3.50;;;27.50;64.20;;;;;;5092871;28;20227;-57
2023/06/08 09:37:30;;;;;;;4.78;3.55;;;27.40;64.30;;;;;;5095999;28;20257;-57
2023/06/08 09:39:57;;;;;;;3.88;3.55;;;27.60;64.60;;;;;;5096426;28;20295;-58
2023/06/08 09:42:41;;;;;;;3.40;3.10;;;27.80;64.10;;;;;;5096597;28;20211;-57
2023/06/08 09:45:10;;;;;;;4.45;4.00;;;27.80;63.20;;;;;;5096582;28;20631;-57
2023/06/08 09:47:37;;;;;;;3.90;3.50;;;27.90;63.30;;;;;;5095821;28;20295;-58
2023/06/08 09:50:07;;;;;;;13.98;12.77;;;28.00;63.50;;;;;;5096176;28;20560;-58
2023/06/08 09:52:35;;;;;;;6.45;3.83;;;28.10;64.30;;;;;;5096326;28;20224;-59
2023/06/08 09:55:03;;;;;;;4.00;3.55;;;28.20;64.70;;;;;;5096462;28;20211;-58
2023/06/08 09:57:34;;;;;;;4.53;4.00;;;28.30;65.70;;;;;;5096220;28;20228;-58
2023/06/08 10:00:14;;;;;;;4.03;3.63;;;28.30;65.20;;;;;;5096094;28;20638;-58
2023/06/08 10:02:46;;;;;;;4.13;3.72;;;28.40;65.20;;;;;;5096480;28;20184;-59
2023/06/08 10:05:17;;;;;;;3.85;3.53;;;28.60;65.40;;;;;;5096158;28;20208;-59
2023/06/08 10:07:48;;;;;;;3.88;3.58;;;28.70;65.50;;;;;;5096281;28;20235;-57
2023/06/08 10:10:18;;;;;;;7.32;4.50;;;28.70;63.50;;;;;;5096072;28;20215;-58
2023/06/08 10:12:47;;;;;;;4.45;4.05;;;28.50;66.70;;;;;;5095669;28;20246;-58
2023/06/08 10:15:15;;;;;;;4.55;4.07;;;28.40;68.30;;;;;;5095928;28;20207;-58
2023/06/08 10:17:43;;;;;;;4.82;4.18;;;28.50;67.50;;;;;;5095149;28;20232;-58
2023/06/08 10:20:12;;;;;;;4.60;3.97;;;28.90;67.10;;;;;;5095701;28;20700;-58
2023/06/08 10:22:40;;;;;;;5.28;4.38;;;29.10;66.80;;;;;;5095860;28;20592;-58
2023/06/08 10:25:08;;;;;;;7.15;4.32;;;29.20;65.50;;;;;;5095791;28;20208;-58
2023/06/08 10:27:35;;;;;;;4.35;3.90;;;29.20;66.60;;;;;;5095026;28;20232;-58
2023/06/08 10:30:06;;;;;;;6.40;3.97;;;29.40;66.70;;;;;;5095328;28;20208;-57
2023/06/08 10:32:34;;;;;;;4.20;3.80;;;29.50;65.50;;;;;;5095615;28;20226;-59
2023/06/08 10:35:04;;;;;;;4.15;3.58;;;29.50;65.50;;;;;;5096999;28;20239;-64
2023/06/08 10:37:32;;;;;;;4.45;4.05;;;29.70;65.90;;;;;;5095724;28;20224;-60
2023/06/08 10:40:00;;;;;;;6.75;4.28;;;29.80;65.80;;;;;;5095724;28;20259;-60
2023/06/08 10:42:27;;;;;;;4.28;3.67;;;30.00;64.40;;;;;;5095778;28;20205;-60
2023/06/08 10:44:55;;;;;;;5.68;4.20;;;30.10;64.00;;;;;;5095308;28;20691;-60
2023/06/08 10:47:23;;;;;;;4.60;4.20;;;30.30;63.30;;;;;;5094081;28;20228;-60
2023/06/08 10:49:57;;;;;;;5.18;4.68;;;30.40;64.10;;;;;;5095292;28;20208;-59
2023/06/08 10:52:25;;;;;;;4.88;4.05;;;30.50;64.30;;;;;;5095051;28;20643;-60
2023/06/08 10:54:55;;;;;;;5.70;4.63;;;30.70;64.10;;;;;;5094778;28;20689;-59
2023/06/08 10:57:40;;;;;;;4.90;4.40;;;30.90;64.70;;;;;;5094812;28;20224;-60
2023/06/08 11:00:43;;;;;;;6.20;4.63;;;31.00;64.70;;;;;;5095026;28;20215;-60
2023/06/08 11:03:13;;;;;;;6.15;4.28;;;31.20;64.80;;;;;;5094813;28;20570;-59
2023/06/08 11:05:43;;;;;;;5.28;4.72;;;31.30;64.80;;;;;;5094921;28;20258;-60
2023/06/08 11:08:10;;;;;;;5.90;4.90;;;31.50;63.00;;;;;;5094564;28;20689;-60
2023/06/08 11:10:39;;;;;;;4.78;4.25;;;31.60;63.60;;;;;;5094788;28;20208;-60
2023/06/08 11:13:06;;;;;;;5.60;4.95;;;31.90;63.40;;;;;;5094470;28;20228;-60
2023/06/08 11:15:35;;;;;;;6.55;4.75;;;32.00;62.60;;;;;;5094406;28;20207;-60
2023/06/08 11:18:03;;;;;;;5.55;4.00;;;32.10;62.90;;;;;;5094221;28;20232;-59
2023/06/08 11:20:33;;;;;;;7.25;4.13;;;32.00;60.80;;;;;;5094534;28;20209;-60
2023/06/08 11:23:02;;;;;;;4.60;4.20;;;31.80;60.50;;;;;;5094701;28;20264;-60
2023/06/08 11:25:29;;;;;;;6.00;4.03;;;31.30;59.60;;;;;;5093946;28;20257;-60
2023/06/08 11:27:57;;;;;;;4.43;4.03;;;30.90;60.30;;;;;;5093809;28;20652;-60
2023/06/08 11:30:26;;;;;;;5.13;3.60;;;30.60;61.50;;;;;;5094274;28;20208;-60
2023/06/08 11:32:53;;;;;;;3.78;3.47;;;30.40;62.20;;;;;;5093994;28;20219;-60
2023/06/08 11:35:22;;;;;;;3.92;3.60;;;30.10;62.90;;;;;;5094161;28;20227;-59
2023/06/08 11:37:51;;;;;;;5.88;4.18;;;29.90;63.10;;;;;;5093749;28;20224;-60
2023/06/08 11:40:18;;;;;;;3.75;3.40;;;29.70;62.70;;;;;;5093939;28;20470;-59
2023/06/08 11:42:45;;;;;;;15.63;4.95;;;29.60;62.60;;;;;;5093976;28;20212;-60
2023/06/08 11:45:14;;;;;;;15.23;5.10;;;29.40;76.60;;;;;;5094387;28;20373;-60
2023/06/08 11:47:42;;;;;;;7.28;5.20;;;28.20;86.70;;;;;;5093792;28;20224;-64
2023/06/08 11:50:09;;;;;;;7.15;5.32;;;26.40;97.90;;;;;;5081847;28;20212;-62
2023/06/08 11:52:39;;;;;;;7.10;5.60;;;24.80;99.90;;;;;;5074024;28;20475;-63
2023/06/08 11:55:11;;;;;;;8.57;5.47;;;23.80;99.90;;;;;;5074135;28;20710;-63
2023/06/08 11:57:40;;;;;;;6.80;6.20;;;23.30;99.90;;;;;;5075163;28;20227;-62
2023/06/08 12:00:09;;;;;;;6.97;5.68;;;23.10;99.90;;;;;;5077599;28;20267;-62
2023/06/08 12:02:36;;;;;;;7.75;5.50;;;23.20;99.90;;;;;;5077378;28;20201;-62
2023/06/08 12:05:03;;;;;;;8.50;5.50;;;23.50;99.90;;;;;;5069438;28;20658;-59
2023/06/08 12:07:30;;;;;;;6.15;5.55;;;23.70;99.90;;;;;;5070047;28;20225;-62
2023/06/08 12:09:59;;;;;;;5.90;5.13;;;24.10;99.90;;;;;;5073182;28;20288;-62
2023/06/08 12:12:29;;;;;;;8.48;5.97;;;24.40;99.90;;;;;;5075225;28;20266;-63
2023/06/08 12:14:57;;;;;;;5.82;5.15;;;24.50;99.90;;;;;;5072091;28;20604;-64
2023/06/08 12:17:28;;;;;;;6.78;5.18;;;24.80;99.90;;;;;;5072498;28;20229;-63
2023/06/08 12:19:55;;;;;;;6.57;5.43;;;25.00;99.90;;;;;;5073046;28;20296;-62
2023/06/08 12:22:22;;;;;;;13.93;7.78;;;25.30;99.90;;;;;;5076626;28;20213;-63
2023/06/08 12:24:49;;;;;;;8.38;6.60;;;25.10;99.90;;;;;;5073307;28;20197;-60
2023/06/08 12:27:16;;;;;;;8.85;5.50;;;24.80;99.90;;;;;;5072915;28;20225;-62
2023/06/08 12:29:46;;;;;;;8.73;5.55;;;24.70;99.90;;;;;;5073114;28;20208;-61
2023/06/08 12:32:13;;;;;;;6.93;4.43;;;24.80;99.90;;;;;;5073699;28;20205;-62
2023/06/08 12:34:40;;;;;;;5.30;4.40;;;25.00;99.90;;;;;;5076368;28;20286;-62
2023/06/08 12:37:07;;;;;;;6.30;4.45;;;25.00;99.90;;;;;;5078144;28;20315;-63
2023/06/08 12:39:33;;;;;;;6.75;4.90;;;25.10;99.90;;;;;;5078085;28;20726;-62
2023/06/08 12:42:00;;;;;;;6.03;5.25;;;24.90;99.90;;;;;;5075158;28;20250;-61
2023/06/08 12:44:27;;;;;;;5.57;4.13;;;24.70;99.90;;;;;;5075550;28;20280;-62
2023/06/08 12:46:55;;;;;;;7.10;4.30;;;24.50;99.90;;;;;;5075843;28;20220;-64
2023/06/08 12:49:22;;;;;;;6.40;4.72;;;24.40;98.90;;;;;;5075210;28;20445;-59